Time,TemperatureF,DewpointF,PressureIn,WindDirection,WindDirectionDegrees,WindSpeedMPH,WindSpeedGustMPH,Humidity,HourlyPrecipIn,Conditions,Clouds,dailyrainin,SoftwareType,DateUTC
2013-08-07 00:03:00,52.5,35.4,29.72,NNW,343,1.2,1.2,52,0.00,CLR,,0.00,WeatherDisplay:10.37,2013-08-07 06:03:00,
2013-08-07 00:08:00,52.6,35.5,29.72,NNW,343,1.0,1.0,52,0.00,CLR,,0.00,WeatherDisplay:10.37,2013-08-07 06:08:00,
2013-08-07 00:13:00,52.6,35.0,29.72,NNW,343,1.2,1.2,51,0.00,CLR,,0.00,WeatherDisplay:10.37,2013-08-07 06:13:00,
2013-08-07 00:18:00,52.5,35.4,29.73,NNW,343,0.0,0.0,52,0.00,CLR,,0.00,WeatherDisplay:10.37,2013-08-07 06:18:00,
2013-08-07 00:23:00,52.3,35.2,29.73,NNW,343,2.3,2.3,52,0.00,CLR,,0.00,WeatherDisplay:10.37,2013-08-07 06:23:00,
2013-08-07 00:28:00,52.2,35.6,29.73,NNW,343,2.3,2.3,53,0.00,CLR,,0.00,WeatherDisplay:10.37,2013-08-07 06:28:00,
2013-08-07 00:33:00,52.0,34.9,29.74,NNW,343,2.3,2.3,52,0.00,CLR,,0.00,WeatherDisplay:10.37,2013-08-07 06:33:00,
2013-08-07 00:38:00,51.9,35.3,29.74,NNW,343,1.2,1.2,53,0.00,CLR,,0.00,WeatherDisplay:10.37,2013-08-07 06:38:00,
2013-08-07 00:43:00,51.6,35.5,29.74,NNW,343,0.0,0.0,54,0.00,CLR,,0.00,WeatherDisplay:10.37,2013-08-07 06:43:00,
2013-08-07 00:48:00,51.3,35.2,29.75,NNW,343,0.0,0.0,54,0.00,CLR,,0.00,WeatherDisplay:10.37,2013-08-07 06:48:00,
2013-08-07 00:53:00,51.0,35.4,29.75,NNW,343,2.3,2.3,55,0.00,CLR,,0.00,WeatherDisplay:10.37,2013-08-07 06:53:00,
2013-08-07 00:58:00,50.8,34.7,29.75,NNW,343,0.0,0.0,54,0.00,CLR,,0.00,WeatherDisplay:10.37,2013-08-07 06:58:00,
2013-08-07 01:03:00,50.4,34.8,29.75,NNW,343,0.0,0.0,55,0.00,CLR,,0.00,WeatherDisplay:10.37,2013-08-07 07:03:00,
2013-08-07 01:08:00,50.1,35.4,29.75,NE,40,3.5,3.5,57,0.00,CLR,,0.00,WeatherDisplay:10.37,2013-08-07 07:08:00,
2013-08-07 01:13:00,49.6,35.0,29.75,NE,39,3.5,3.5,57,0.00,CLR,,0.00,WeatherDisplay:10.37,2013-08-07 07:13:00,
2013-08-07 01:18:00,49.5,34.9,29.81,North,352,5.8,5.8,57,0.00,CLR,,0.00,WeatherDisplay:10.37,2013-08-07 07:18:00,
2013-08-07 01:23:00,49.9,34.8,29.81,NNW,347,5.8,5.8,56,0.00,CLR,,0.00,WeatherDisplay:10.37,2013-08-07 07:23:00,
2013-08-07 01:28:00,50.5,34.9,29.81,NNW,347,3.5,3.5,55,0.00,CLR,,0.00,WeatherDisplay:10.37,2013-08-07 07:28:00,
2013-08-07 01:33:00,51.1,35.0,29.80,North,358,5.0,5.0,54,0.00,CLR,,0.00,WeatherDisplay:10.37,2013-08-07 07:33:00,
2013-08-07 01:38:00,51.4,35.3,29.80,North,0,0.0,0.1,54,0.00,CLR,,0.00,WeatherDisplay:10.37,2013-08-07 07:38:00,
2013-08-07 01:43:00,51.4,35.8,29.80,ESE,104,2.3,2.3,55,0.00,CLR,,0.00,WeatherDisplay:10.37,2013-08-07 07:43:00,
2013-08-07 01:48:00,51.3,35.2,29.80,ESE,104,0.0,0.0,54,0.00,CLR,,0.00,WeatherDisplay:10.37,2013-08-07 07:48:00,
2013-08-07 01:53:00,51.1,35.0,29.80,SSE,153,2.3,2.3,54,0.00,CLR,,0.00,WeatherDisplay:10.37,2013-08-07 07:53:00,
2013-08-07 01:58:00,51.0,35.4,29.80,NNW,333,3.5,3.5,55,0.00,CLR,,0.00,WeatherDisplay:10.37,2013-08-07 07:58:00,
2013-08-07 02:03:00,50.8,35.7,29.80,NNW,333,3.0,3.0,56,0.00,CLR,,0.00,WeatherDisplay:10.37,2013-08-07 08:03:00,
2013-08-07 02:08:00,50.5,35.4,29.80,ENE,67,3.0,3.0,56,0.00,CLR,,0.00,WeatherDisplay:10.37,2013-08-07 08:08:00,
2013-08-07 02:13:00,49.9,35.7,29.80,ENE,67,2.3,2.3,58,0.00,CLR,,0.00,WeatherDisplay:10.37,2013-08-07 08:13:00,
2013-08-07 02:18:00,49.5,35.8,29.85,ENE,67,2.3,2.3,59,0.00,CLR,,0.00,WeatherDisplay:10.37,2013-08-07 08:18:00,
2013-08-07 02:23:00,49.1,35.4,29.85,ENE,67,1.2,0.0,59,0.00,CLR,,0.00,WeatherDisplay:10.37,2013-08-07 08:23:00,
2013-08-07 02:28:00,48.6,35.3,29.85,North,11,2.3,2.3,60,0.00,CLR,,0.00,WeatherDisplay:10.37,2013-08-07 08:28:00,
2013-08-07 02:33:00,48.3,35.5,29.86,NNW,341,3.5,3.5,61,0.00,CLR,,0.00,WeatherDisplay:10.37,2013-08-07 08:33:00,
2013-08-07 02:38:00,48.0,35.2,29.86,NNW,341,0.0,0.0,61,0.00,CLR,,0.00,WeatherDisplay:10.37,2013-08-07 08:38:00,
2013-08-07 02:43:00,47.6,35.2,29.86,NNW,341,0.0,0.0,62,0.00,CLR,,0.00,WeatherDisplay:10.37,2013-08-07 08:43:00,
2013-08-07 02:48:00,47.4,35.4,29.86,NNW,340,1.2,0.0,63,0.00,CLR,,0.00,WeatherDisplay:10.37,2013-08-07 08:48:00,
2013-08-07 02:53:00,47.3,35.3,29.86,NNW,340,0.0,0.0,63,0.00,CLR,,0.00,WeatherDisplay:10.37,2013-08-07 08:53:00,
2013-08-07 02:58:00,47.3,35.3,29.86,NNW,340,3.5,3.5,63,0.00,CLR,,0.00,WeatherDisplay:10.37,2013-08-07 08:58:00,
2013-08-07 03:03:00,47.3,35.7,29.88,NNW,340,0.0,0.0,64,0.00,CLR,,0.00,WeatherDisplay:10.37,2013-08-07 09:03:00,
2013-08-07 03:08:00,47.1,35.5,29.88,NNW,340,2.3,2.3,64,0.00,CLR,,0.00,WeatherDisplay:10.37,2013-08-07 09:08:00,
2013-08-07 03:13:00,47.0,35.4,29.88,NNW,340,0.0,0.0,64,0.00,CLR,,0.00,WeatherDisplay:10.37,2013-08-07 09:13:00,
2013-08-07 03:18:00,47.0,35.4,29.86,North,7,2.3,2.3,64,0.00,CLR,,0.00,WeatherDisplay:10.37,2013-08-07 09:18:00,
2013-08-07 03:23:00,47.0,35.4,29.86,North,7,3.5,3.5,64,0.00,CLR,,0.00,WeatherDisplay:10.37,2013-08-07 09:23:00,
2013-08-07 03:28:00,46.8,36.0,29.86,North,11,3.5,3.5,66,0.00,CLR,,0.00,WeatherDisplay:10.37,2013-08-07 09:28:00,
2013-08-07 03:33:00,46.7,36.3,29.86,NNW,344,3.5,3.5,67,0.00,CLR,,0.00,WeatherDisplay:10.37,2013-08-07 09:33:00,
2013-08-07 03:38:00,46.7,36.3,29.86,NNW,343,2.3,2.3,67,0.00,CLR,,0.00,WeatherDisplay:10.37,2013-08-07 09:38:00,
2013-08-07 03:43:00,46.7,36.3,29.86,NNW,343,1.2,1.2,67,0.00,CLR,,0.00,WeatherDisplay:10.37,2013-08-07 09:43:00,
2013-08-07 03:48:00,46.7,36.3,29.86,NNW,343,3.5,3.5,67,0.00,CLR,,0.00,WeatherDisplay:10.37,2013-08-07 09:48:00,
2013-08-07 03:53:00,46.8,35.6,29.86,NNW,343,2.3,2.3,65,0.00,CLR,,0.00,WeatherDisplay:10.37,2013-08-07 09:53:00,
2013-08-07 03:58:00,47.0,36.2,29.86,NNW,343,3.5,3.5,66,0.00,CLR,,0.00,WeatherDisplay:10.37,2013-08-07 09:58:00,
2013-08-07 04:03:00,47.6,36.0,29.85,East,88,5.0,5.0,64,0.00,CLR,,0.00,WeatherDisplay:10.37,2013-08-07 10:03:00,
2013-08-07 04:08:00,47.3,36.9,29.85,East,84,0.0,0.0,67,0.00,CLR,,0.00,WeatherDisplay:10.37,2013-08-07 10:08:00,
2013-08-07 04:13:00,47.0,36.6,29.85,SW,223,3.5,3.5,67,0.00,CLR,,0.00,WeatherDisplay:10.37,2013-08-07 10:13:00,
2013-08-07 04:18:00,47.0,37.0,29.88,SW,224,3.5,3.5,68,0.00,CLR,,0.00,WeatherDisplay:10.37,2013-08-07 10:18:00,
2013-08-07 04:23:00,46.8,36.8,29.88,WNW,292,4.6,4.6,68,0.00,CLR,,0.00,WeatherDisplay:10.37,2013-08-07 10:23:00,
2013-08-07 04:28:00,46.8,36.4,29.88,WNW,297,1.2,1.2,67,0.00,CLR,,0.00,WeatherDisplay:10.37,2013-08-07 10:28:00,
2013-08-07 04:33:00,47.0,36.6,29.87,WNW,297,0.0,0.0,67,0.00,CLR,,0.00,WeatherDisplay:10.37,2013-08-07 10:33:00,
2013-08-07 04:38:00,47.0,36.2,29.87,WNW,297,0.0,0.0,66,0.00,CLR,,0.00,WeatherDisplay:10.37,2013-08-07 10:38:00,
2013-08-07 04:43:00,47.0,36.6,29.87,WNW,297,1.2,1.2,67,0.00,CLR,,0.00,WeatherDisplay:10.37,2013-08-07 10:43:00,
2013-08-07 04:48:00,47.0,37.4,29.87,WNW,297,0.0,0.0,69,0.00,CLR,,0.00,WeatherDisplay:10.37,2013-08-07 10:48:00,
2013-08-07 04:53:00,46.8,37.2,29.87,NW,321,3.5,3.5,69,0.00,CLR,,0.00,WeatherDisplay:10.37,2013-08-07 10:53:00,
2013-08-07 04:58:00,46.7,37.1,29.87,NW,321,0.0,0.0,69,0.00,CLR,,0.00,WeatherDisplay:10.37,2013-08-07 10:58:00,
2013-08-07 05:03:00,46.7,36.7,29.87,NW,321,1.2,1.2,68,0.00,CLR,,0.00,WeatherDisplay:10.37,2013-08-07 11:03:00,
2013-08-07 05:08:00,46.7,36.3,29.87,NW,321,3.5,3.5,67,0.00,CLR,,0.00,WeatherDisplay:10.37,2013-08-07 11:08:00,
2013-08-07 05:13:00,46.7,36.3,29.87,NW,324,2.3,2.3,67,0.00,CLR,,0.00,WeatherDisplay:10.37,2013-08-07 11:13:00,
2013-08-07 05:18:00,46.8,36.8,29.87,NNW,328,3.5,3.5,68,0.00,CLR,,0.00,WeatherDisplay:10.37,2013-08-07 11:18:00,
2013-08-07 05:23:00,46.8,36.8,29.87,NNW,327,3.5,3.5,68,0.00,CLR,,0.00,WeatherDisplay:10.37,2013-08-07 11:23:00,
2013-08-07 05:28:00,46.8,36.8,29.87,NNW,327,0.0,0.0,68,0.00,CLR,,0.00,WeatherDisplay:10.37,2013-08-07 11:28:00,
2013-08-07 05:33:00,47.0,37.4,29.87,NE,40,1.2,0.0,69,0.00,CLR,,0.00,WeatherDisplay:10.37,2013-08-07 11:33:00,
2013-08-07 05:38:00,47.0,37.4,29.87,North,351,1.2,0.0,69,0.00,CLR,,0.00,WeatherDisplay:10.37,2013-08-07 11:38:00,
2013-08-07 05:43:00,47.1,37.4,29.87,North,351,0.0,0.0,69,0.00,CLR,,0.00,WeatherDisplay:10.37,2013-08-07 11:43:00,
2013-08-07 05:48:00,47.1,37.4,29.87,North,352,0.0,0.0,69,0.00,CLR,,0.00,WeatherDisplay:10.37,2013-08-07 11:48:00,
2013-08-07 05:53:00,47.1,37.4,29.87,North,351,1.2,0.0,69,0.00,CLR,,0.00,WeatherDisplay:10.37,2013-08-07 11:53:00,
2013-08-07 05:58:00,47.1,36.7,29.87,NW,324,1.2,0.0,67,0.00,CLR,,0.00,WeatherDisplay:10.37,2013-08-07 11:58:00,
2013-08-07 06:03:00,47.1,36.3,29.86,NW,324,1.2,1.2,66,0.00,CLR,,0.00,WeatherDisplay:10.37,2013-08-07 12:03:00,
2013-08-07 06:08:00,47.3,36.5,29.86,NW,324,1.2,0.0,66,0.00,CLR,,0.00,WeatherDisplay:10.37,2013-08-07 12:08:00,
2013-08-07 06:13:00,47.1,37.4,29.86,NW,324,0.0,0.0,69,0.00,CLR,,0.00,WeatherDisplay:10.37,2013-08-07 12:13:00,
2013-08-07 06:18:00,47.0,37.4,29.87,NW,324,3.5,3.5,69,0.00,CLR,,0.00,WeatherDisplay:10.37,2013-08-07 12:18:00,
2013-08-07 06:23:00,46.8,37.5,29.87,NW,324,1.2,1.2,70,0.00,CLR,,0.00,WeatherDisplay:10.37,2013-08-07 12:23:00,
2013-08-07 06:28:00,46.7,37.4,29.87,NW,324,0.0,0.0,70,0.00,CLR,,0.00,WeatherDisplay:10.37,2013-08-07 12:28:00,
2013-08-07 06:33:00,46.4,36.8,29.87,NW,324,0.0,0.0,69,0.00,CLR,,0.00,WeatherDisplay:10.37,2013-08-07 12:33:00,
2013-08-07 06:38:00,46.2,36.6,29.87,NW,324,0.0,0.0,69,0.00,CLR,,0.00,WeatherDisplay:10.37,2013-08-07 12:38:00,
2013-08-07 06:43:00,46.1,36.5,29.87,NW,324,0.0,0.0,69,0.00,CLR,,0.00,WeatherDisplay:10.37,2013-08-07 12:43:00,
2013-08-07 06:48:00,46.1,36.9,29.87,NW,324,0.0,0.0,70,0.00,CLR,,0.00,WeatherDisplay:10.37,2013-08-07 12:48:00,
2013-08-07 06:53:00,46.1,36.9,29.87,NW,324,3.5,3.5,70,0.00,CLR,,0.00,WeatherDisplay:10.37,2013-08-07 12:53:00,
2013-08-07 06:58:00,46.2,37.3,29.87,NW,326,4.6,4.6,71,0.00,CLR,,0.00,WeatherDisplay:10.37,2013-08-07 12:58:00,
2013-08-07 07:03:00,46.4,37.5,29.87,NW,326,1.2,1.2,71,0.00,CLR,,0.00,WeatherDisplay:10.37,2013-08-07 13:03:00,
2013-08-07 07:08:00,46.7,38.1,29.87,NW,326,0.0,0.0,72,0.00,CLR,,0.00,WeatherDisplay:10.37,2013-08-07 13:08:00,
2013-08-07 07:13:00,47.0,38.1,29.87,NW,326,0.0,0.0,71,0.00,CLR,,0.00,WeatherDisplay:10.37,2013-08-07 13:13:00,
2013-08-07 07:18:00,47.7,38.4,29.86,NW,326,0.0,0.0,70,0.00,CLR,,0.00,WeatherDisplay:10.37,2013-08-07 13:18:00,
2013-08-07 07:23:00,48.2,38.9,29.86,NW,326,0.0,0.0,70,0.00,CLR,,0.00,WeatherDisplay:10.37,2013-08-07 13:23:00,
2013-08-07 07:28:00,48.6,39.6,29.86,NW,326,1.2,1.2,71,0.00,CLR,,0.00,WeatherDisplay:10.37,2013-08-07 13:28:00,
2013-08-07 07:33:00,48.9,39.5,29.85,NW,326,2.3,2.3,70,0.00,CLR,,0.00,WeatherDisplay:10.37,2013-08-07 13:33:00,
2013-08-07 07:38:00,49.2,39.5,29.85,NW,326,3.5,3.5,69,0.00,CLR,,0.00,WeatherDisplay:10.37,2013-08-07 13:38:00,
2013-08-07 07:43:00,49.4,38.5,29.85,NW,326,0.0,0.0,66,0.00,CLR,,0.00,WeatherDisplay:10.37,2013-08-07 13:43:00,
2013-08-07 07:48:00,49.9,39.0,29.85,NW,326,0.0,0.0,66,0.00,CLR,,0.00,WeatherDisplay:10.37,2013-08-07 13:48:00,
2013-08-07 07:53:00,50.8,39.5,29.85,WSW,241,4.6,4.6,65,0.00,CLR,,0.00,WeatherDisplay:10.37,2013-08-07 13:53:00,
2013-08-07 07:58:00,51.4,39.6,29.85,WSW,241,2.3,2.3,64,0.00,CLR,,0.00,WeatherDisplay:10.37,2013-08-07 13:58:00,
2013-08-07 08:03:00,52.0,40.2,29.84,WSW,241,0.0,0.0,64,0.00,CLR,,0.00,WeatherDisplay:10.37,2013-08-07 14:03:00,
2013-08-07 08:08:00,52.6,41.2,29.84,WSW,241,1.2,1.2,65,0.00,CLR,,0.00,WeatherDisplay:10.37,2013-08-07 14:08:00,
2013-08-07 08:13:00,53.3,41.4,29.84,WNW,285,1.2,1.2,64,0.00,CLR,,0.00,WeatherDisplay:10.37,2013-08-07 14:13:00,
2013-08-07 08:18:00,54.2,41.0,29.83,WNW,285,0.0,0.0,61,0.00,CLR,,0.00,WeatherDisplay:10.37,2013-08-07 14:18:00,
2013-08-07 08:23:00,55.3,38.4,29.83,North,358,1.2,1.2,53,0.00,CLR,,0.00,WeatherDisplay:10.37,2013-08-07 14:23:00,
2013-08-07 08:28:00,56.3,39.4,29.83,North,358,1.2,0.0,53,0.00,CLR,,0.00,WeatherDisplay:10.37,2013-08-07 14:28:00,
2013-08-07 08:33:00,57.2,40.2,29.82,North,0,0.0,0.0,53,0.00,CLR,,0.00,WeatherDisplay:10.37,2013-08-07 14:33:00,
2013-08-07 08:38:00,58.0,38.9,29.82,SSE,158,3.5,3.5,49,0.00,CLR,,0.00,WeatherDisplay:10.37,2013-08-07 14:38:00,
2013-08-07 08:43:00,58.6,40.0,29.82,SSE,158,1.2,0.0,50,0.00,CLR,,0.00,WeatherDisplay:10.37,2013-08-07 14:43:00,
2013-08-07 08:48:00,59.2,40.6,29.80,SSE,159,2.3,2.3,50,0.00,CLR,,0.00,WeatherDisplay:10.37,2013-08-07 14:48:00,
2013-08-07 08:53:00,59.5,40.8,29.80,SSE,159,1.0,0.0,50,0.00,CLR,,0.00,WeatherDisplay:10.37,2013-08-07 14:53:00,
2013-08-07 08:58:00,59.9,40.7,29.80,SSE,159,1.2,1.2,49,0.00,CLR,,0.00,WeatherDisplay:10.37,2013-08-07 14:58:00,
2013-08-07 09:03:00,60.7,40.9,29.78,SSE,159,0.0,0.0,48,0.00,CLR,,0.00,WeatherDisplay:10.37,2013-08-07 15:03:00,
2013-08-07 09:08:00,61.5,40.5,29.78,SSE,159,0.0,0.0,46,0.00,CLR,,0.00,WeatherDisplay:10.37,2013-08-07 15:08:00,
2013-08-07 09:13:00,62.3,42.3,29.78,SSE,159,1.2,1.2,48,0.00,CLR,,0.00,WeatherDisplay:10.37,2013-08-07 15:13:00,
2013-08-07 09:18:00,63.4,41.7,29.78,SSE,166,1.2,1.2,45,0.00,CLR,,0.00,WeatherDisplay:10.37,2013-08-07 15:18:00,
2013-08-07 09:23:00,64.2,40.6,29.78,SSE,165,1.0,1.0,42,0.00,CLR,,0.00,WeatherDisplay:10.37,2013-08-07 15:23:00,
2013-08-07 09:28:00,64.3,39.4,29.78,SSE,148,3.5,3.5,40,0.00,CLR,,0.00,WeatherDisplay:10.37,2013-08-07 15:28:00,
2013-08-07 09:33:00,64.7,38.5,29.78,SSE,148,4.6,4.6,38,0.00,CLR,,0.00,WeatherDisplay:10.37,2013-08-07 15:33:00,
2013-08-07 09:38:00,64.7,37.8,29.78,SSE,153,2.3,2.3,37,0.00,CLR,,0.00,WeatherDisplay:10.37,2013-08-07 15:38:00,
2013-08-07 09:43:00,64.7,37.8,29.78,SSE,156,1.2,1.2,37,0.00,CLR,,0.00,WeatherDisplay:10.37,2013-08-07 15:43:00,
2013-08-07 09:48:00,64.7,39.8,29.78,East,87,6.9,6.9,40,0.00,CLR,,0.00,WeatherDisplay:10.37,2013-08-07 15:48:00,
2013-08-07 09:53:00,64.3,40.1,29.78,ENE,72,10.4,10.4,41,0.00,CLR,,0.00,WeatherDisplay:10.37,2013-08-07 15:53:00,
2013-08-07 09:58:00,64.0,41.6,29.78,East,90,6.9,6.9,44,0.00,CLR,,0.00,WeatherDisplay:10.37,2013-08-07 15:58:00,
2013-08-07 10:03:00,64.0,42.2,29.77,East,97,8.1,8.1,45,0.00,CLR,,0.00,WeatherDisplay:10.37,2013-08-07 16:03:00,
2013-08-07 10:08:00,64.0,42.2,29.77,ENE,77,10.4,10.4,45,0.00,CLR,,0.00,WeatherDisplay:10.37,2013-08-07 16:08:00,
2013-08-07 10:13:00,64.0,43.9,29.77,East,90,6.9,6.9,48,0.00,CLR,,0.00,WeatherDisplay:10.37,2013-08-07 16:13:00,
2013-08-07 10:18:00,64.2,45.2,29.83,ESE,105,6.0,6.0,50,0.00,CLR,,0.00,WeatherDisplay:10.37,2013-08-07 16:18:00,
2013-08-07 10:23:00,64.5,44.4,29.83,ENE,69,6.9,6.9,48,0.00,CLR,,0.00,WeatherDisplay:10.37,2013-08-07 16:23:00,
2013-08-07 10:28:00,64.8,42.4,29.83,ESE,117,10.4,10.4,44,0.00,CLR,,0.00,WeatherDisplay:10.37,2013-08-07 16:28:00,
2013-08-07 10:33:00,65.0,42.5,29.83,ESE,122,6.0,6.0,44,0.00,CLR,,0.00,WeatherDisplay:10.37,2013-08-07 16:33:00,
2013-08-07 10:38:00,65.3,41.0,29.83,SE,125,8.1,8.1,41,0.00,CLR,,0.00,WeatherDisplay:10.37,2013-08-07 16:38:00,
2013-08-07 10:43:00,65.8,41.4,29.83,SE,127,8.1,8.1,41,0.00,CLR,,0.00,WeatherDisplay:10.37,2013-08-07 16:43:00,
2013-08-07 10:48:00,66.1,41.1,29.83,ESE,111,5.8,5.8,40,0.00,CLR,,0.00,WeatherDisplay:10.37,2013-08-07 16:48:00,
2013-08-07 10:53:00,66.1,41.1,29.83,SE,128,4.6,4.6,40,0.00,CLR,,0.00,WeatherDisplay:10.37,2013-08-07 16:53:00,
2013-08-07 10:58:00,66.0,41.6,29.83,ESE,120,4.6,4.6,41,0.00,CLR,,0.00,WeatherDisplay:10.37,2013-08-07 16:58:00,
2013-08-07 11:03:00,65.8,42.1,29.82,SE,128,3.5,3.5,42,0.00,CLR,,0.00,WeatherDisplay:10.37,2013-08-07 17:03:00,
2013-08-07 11:08:00,65.6,42.5,29.82,ESE,118,3.5,3.5,43,0.00,CLR,,0.00,WeatherDisplay:10.37,2013-08-07 17:08:00,
2013-08-07 11:13:00,65.6,44.3,29.82,SE,128,5.8,5.8,46,0.00,CLR,,0.00,WeatherDisplay:10.37,2013-08-07 17:13:00,
2013-08-07 11:18:00,65.2,43.9,29.83,SE,128,4.6,4.6,46,0.00,CLR,,0.00,WeatherDisplay:10.37,2013-08-07 17:18:00,
2013-08-07 11:23:00,64.8,43.5,29.83,ESE,112,4.6,4.6,46,0.00,CLR,,0.00,WeatherDisplay:10.37,2013-08-07 17:23:00,
2013-08-07 11:28:00,64.8,42.9,29.83,East,94,5.8,5.8,45,0.00,CLR,,0.00,WeatherDisplay:10.37,2013-08-07 17:28:00,
2013-08-07 11:33:00,64.7,43.4,29.83,ESE,117,6.9,6.9,46,0.00,CLR,,0.00,WeatherDisplay:10.37,2013-08-07 17:33:00,
2013-08-07 11:38:00,64.3,44.2,29.83,ESE,104,5.8,5.8,48,0.00,CLR,,0.00,WeatherDisplay:10.37,2013-08-07 17:38:00,
2013-08-07 11:43:00,64.3,42.5,29.83,SE,132,4.6,4.6,45,0.00,CLR,,0.00,WeatherDisplay:10.37,2013-08-07 17:43:00,
2013-08-07 11:48:00,64.5,43.3,29.83,SE,124,3.5,3.5,46,0.00,CLR,,0.00,WeatherDisplay:10.37,2013-08-07 17:48:00,
2013-08-07 11:53:00,64.3,43.1,29.83,SE,128,3.5,3.5,46,0.00,CLR,,0.00,WeatherDisplay:10.37,2013-08-07 17:53:00,
2013-08-07 11:58:00,64.3,43.6,29.83,SE,128,2.3,2.3,47,0.00,CLR,,0.00,WeatherDisplay:10.37,2013-08-07 17:58:00,
2013-08-07 12:03:00,64.5,42.7,29.84,SE,127,2.3,2.3,45,0.00,CLR,,0.00,WeatherDisplay:10.37,2013-08-07 18:03:00,
2013-08-07 12:08:00,64.8,41.8,29.84,ESE,115,2.3,2.3,43,0.00,CLR,,0.00,WeatherDisplay:10.37,2013-08-07 18:08:00,
2013-08-07 12:13:00,65.0,43.1,29.84,NNE,18,3.5,3.5,45,0.00,CLR,,0.00,WeatherDisplay:10.37,2013-08-07 18:13:00,
2013-08-07 12:18:00,65.3,44.0,29.83,NNE,18,0.0,0.0,46,0.00,CLR,,0.00,WeatherDisplay:10.37,2013-08-07 18:18:00,
2013-08-07 12:23:00,65.5,44.2,29.83,NNE,14,3.5,3.5,46,0.00,CLR,,0.00,WeatherDisplay:10.37,2013-08-07 18:23:00,
2013-08-07 12:28:00,65.6,43.1,29.83,ENE,59,1.2,1.2,44,0.00,CLR,,0.00,WeatherDisplay:10.37,2013-08-07 18:28:00,
2013-08-07 12:33:00,65.6,44.3,29.83,ENE,59,3.5,3.5,46,0.00,CLR,,0.00,WeatherDisplay:10.37,2013-08-07 18:33:00,
2013-08-07 12:38:00,65.5,43.6,29.83,ENE,59,2.3,2.3,45,0.00,CLR,,0.00,WeatherDisplay:10.37,2013-08-07 18:38:00,
2013-08-07 12:43:00,65.3,46.2,29.83,NE,55,4.6,4.6,50,0.00,CLR,,0.00,WeatherDisplay:10.37,2013-08-07 18:43:00,
2013-08-07 12:48:00,65.2,47.6,29.82,NE,55,3.0,3.0,53,0.00,CLR,,0.00,WeatherDisplay:10.37,2013-08-07 18:48:00,
2013-08-07 12:53:00,64.8,47.8,29.82,NE,52,5.8,5.8,54,0.00,CLR,,0.00,WeatherDisplay:10.37,2013-08-07 18:53:00,
2013-08-07 12:58:00,64.5,47.5,29.82,NE,53,4.6,4.6,54,0.00,CLR,,0.00,WeatherDisplay:10.37,2013-08-07 18:58:00,
2013-08-07 13:03:00,64.3,47.3,29.83,NNE,22,4.6,4.6,54,0.00,CLR,,0.00,WeatherDisplay:10.37,2013-08-07 19:03:00,
2013-08-07 13:08:00,64.5,48.4,29.83,NNE,22,4.6,4.6,56,0.00,CLR,,0.00,WeatherDisplay:10.37,2013-08-07 19:08:00,
2013-08-07 13:13:00,64.5,47.5,29.83,NE,43,2.3,2.3,54,0.00,CLR,,0.00,WeatherDisplay:10.37,2013-08-07 19:13:00,
2013-08-07 13:18:00,64.7,47.2,29.82,NE,43,2.3,2.3,53,0.00,CLR,,0.00,WeatherDisplay:10.37,2013-08-07 19:18:00,
2013-08-07 13:23:00,64.7,46.7,29.82,NE,42,3.5,3.5,52,0.00,CLR,,0.00,WeatherDisplay:10.37,2013-08-07 19:23:00,
2013-08-07 13:28:00,64.7,46.7,29.82,NNE,32,3.5,3.5,52,0.00,CLR,,0.00,WeatherDisplay:10.37,2013-08-07 19:28:00,
2013-08-07 13:33:00,64.8,46.2,29.82,NNE,18,3.5,3.5,51,0.00,CLR,,0.00,WeatherDisplay:10.37,2013-08-07 19:33:00,
2013-08-07 13:38:00,65.0,45.4,29.82,North,357,2.3,2.3,49,0.00,CLR,,0.00,WeatherDisplay:10.37,2013-08-07 19:38:00,
2013-08-07 13:43:00,65.2,45.5,29.82,NNE,14,3.5,3.5,49,0.00,CLR,,0.00,WeatherDisplay:10.37,2013-08-07 19:43:00,
2013-08-07 13:48:00,65.5,45.8,29.81,ENE,67,2.3,2.3,49,0.00,CLR,,0.00,WeatherDisplay:10.37,2013-08-07 19:48:00,
2013-08-07 13:53:00,65.8,47.2,29.81,ENE,63,5.0,5.0,51,0.00,CLR,,0.00,WeatherDisplay:10.37,2013-08-07 19:53:00,
2013-08-07 13:58:00,66.0,45.2,29.81,ENE,63,0.0,0.0,47,0.00,CLR,,0.00,WeatherDisplay:10.37,2013-08-07 19:58:00,
2013-08-07 14:03:00,66.3,45.5,29.82,East,100,1.2,1.2,47,0.00,CLR,,0.00,WeatherDisplay:10.37,2013-08-07 20:03:00,
2013-08-07 14:08:00,66.4,44.4,29.82,SE,128,4.6,4.6,45,0.00,CLR,,0.00,WeatherDisplay:10.37,2013-08-07 20:08:00,
2013-08-07 14:13:00,66.0,44.0,29.82,ESE,118,2.3,2.3,45,0.00,CLR,,0.00,WeatherDisplay:10.37,2013-08-07 20:13:00,
2013-08-07 14:18:00,65.8,43.9,29.86,ESE,120,5.8,5.8,45,0.00,CLR,,0.00,WeatherDisplay:10.37,2013-08-07 20:18:00,
2013-08-07 14:23:00,65.6,44.8,29.86,SE,144,4.6,4.6,47,0.00,CLR,,0.00,WeatherDisplay:10.37,2013-08-07 20:23:00,
2013-08-07 14:28:00,65.3,44.5,29.86,South,172,8.1,8.1,47,0.00,CLR,,0.00,WeatherDisplay:10.37,2013-08-07 20:28:00,
2013-08-07 14:33:00,64.5,44.4,29.85,South,173,11.5,11.5,48,0.00,CLR,,0.00,WeatherDisplay:10.37,2013-08-07 20:33:00,
2013-08-07 14:38:00,64.3,41.9,29.85,West,272,16.0,16.0,44,0.00,CLR,,0.00,WeatherDisplay:10.37,2013-08-07 20:38:00,
2013-08-07 14:43:00,63.4,43.4,29.85,SW,232,3.5,3.5,48,0.00,CLR,,0.00,WeatherDisplay:10.37,2013-08-07 20:43:00,
2013-08-07 14:48:00,63.2,42.6,29.85,ESE,110,3.5,3.5,47,0.00,CLR,,0.00,WeatherDisplay:10.37,2013-08-07 20:48:00,
2013-08-07 14:53:00,63.2,39.7,29.85,SW,225,5.0,5.0,42,0.00,CLR,,0.00,WeatherDisplay:10.37,2013-08-07 20:53:00,
2013-08-07 14:58:00,63.5,40.0,29.85,SW,214,0.0,0.0,42,0.00,CLR,,0.00,WeatherDisplay:10.37,2013-08-07 20:58:00,
2013-08-07 15:03:00,63.5,40.0,29.86,SW,216,0.0,0.0,42,0.00,CLR,,0.00,WeatherDisplay:10.37,2013-08-07 21:03:00,
2013-08-07 15:08:00,63.7,43.1,29.86,SW,216,2.3,2.3,47,0.00,CLR,,0.00,WeatherDisplay:10.37,2013-08-07 21:08:00,
2013-08-07 15:13:00,63.7,44.2,29.86,SW,217,2.3,2.3,49,0.00,CLR,,0.00,WeatherDisplay:10.37,2013-08-07 21:13:00,
2013-08-07 15:18:00,63.7,43.1,29.86,SW,217,3.5,3.5,47,0.00,CLR,,0.00,WeatherDisplay:10.37,2013-08-07 21:18:00,
2013-08-07 15:23:00,63.9,42.7,29.86,SW,217,0.0,0.0,46,0.00,CLR,,0.00,WeatherDisplay:10.37,2013-08-07 21:23:00,
2013-08-07 15:28:00,64.2,41.2,29.86,SW,217,2.3,2.3,43,0.00,CLR,,0.00,WeatherDisplay:10.37,2013-08-07 21:28:00,
2013-08-07 15:33:00,64.5,43.8,29.86,ESE,111,4.6,4.6,47,0.00,CLR,,0.00,WeatherDisplay:10.37,2013-08-07 21:33:00,
2013-08-07 15:38:00,64.7,44.5,29.86,ESE,121,3.5,3.5,48,0.00,CLR,,0.00,WeatherDisplay:10.37,2013-08-07 21:38:00,
2013-08-07 15:43:00,64.8,44.6,29.86,ESE,111,3.5,3.5,48,0.00,CLR,,0.00,WeatherDisplay:10.37,2013-08-07 21:43:00,
2013-08-07 15:48:00,65.2,45.5,29.84,North,1,5.8,5.8,49,0.00,CLR,,0.00,WeatherDisplay:10.37,2013-08-07 21:48:00,
2013-08-07 15:53:00,65.3,46.2,29.84,North,351,6.0,6.0,50,0.00,CLR,,0.00,WeatherDisplay:10.37,2013-08-07 21:53:00,
2013-08-07 15:58:00,65.2,46.1,29.84,North,352,12.7,12.7,50,0.00,CLR,,0.00,WeatherDisplay:10.37,2013-08-07 21:58:00,
2013-08-07 16:03:00,64.8,45.7,29.85,North,5,11.5,11.5,50,0.00,CLR,,0.00,WeatherDisplay:10.37,2013-08-07 22:03:00,
2013-08-07 16:08:00,64.3,45.8,29.85,North,11,11.5,11.5,51,0.00,CLR,,0.00,WeatherDisplay:10.37,2013-08-07 22:08:00,
2013-08-07 16:13:00,64.2,46.2,29.85,North,1,11.5,11.5,52,0.00,CLR,,0.00,WeatherDisplay:10.37,2013-08-07 22:13:00,
2013-08-07 16:18:00,64.0,46.5,29.87,North,351,11.5,11.5,53,0.00,CLR,,0.00,WeatherDisplay:10.37,2013-08-07 22:18:00,
2013-08-07 16:23:00,64.0,45.5,29.87,North,351,12.0,12.0,51,0.00,CLR,,0.00,WeatherDisplay:10.37,2013-08-07 22:23:00,
2013-08-07 16:28:00,64.0,38.5,29.87,NNW,345,17.3,17.3,39,0.00,CLR,,0.00,WeatherDisplay:10.37,2013-08-07 22:28:00,
2013-08-07 16:33:00,64.0,38.5,29.88,NW,319,13.8,13.8,39,0.00,CLR,,0.00,WeatherDisplay:10.37,2013-08-07 22:33:00,
2013-08-07 16:38:00,64.2,39.4,29.88,North,350,11.0,11.0,40,0.00,CLR,,0.00,WeatherDisplay:10.37,2013-08-07 22:38:00,
2013-08-07 16:43:00,64.0,39.2,29.88,NNW,333,18.4,18.4,40,0.00,CLR,,0.00,WeatherDisplay:10.37,2013-08-07 22:43:00,
2013-08-07 16:48:00,63.7,39.5,29.88,NNW,336,10.4,10.4,41,0.00,CLR,,0.00,WeatherDisplay:10.37,2013-08-07 22:48:00,
2013-08-07 16:53:00,63.2,39.1,29.88,NNW,348,11.5,11.5,41,0.00,CLR,,0.00,WeatherDisplay:10.37,2013-08-07 22:53:00,
2013-08-07 16:58:00,63.4,38.0,29.88,NNW,328,6.9,6.9,39,0.00,CLR,,0.00,WeatherDisplay:10.37,2013-08-07 22:58:00,
2013-08-07 17:03:00,64.0,34.3,29.86,NW,317,6.0,6.0,33,0.00,CLR,,0.00,WeatherDisplay:10.37,2013-08-07 23:03:00,
2013-08-07 17:08:00,65.0,36.7,29.86,ESE,120,3.0,3.0,35,0.00,CLR,,0.00,WeatherDisplay:10.37,2013-08-07 23:08:00,
2013-08-07 17:13:00,65.6,37.9,29.86,ESE,117,4.6,4.6,36,0.00,CLR,,0.00,WeatherDisplay:10.37,2013-08-07 23:13:00,
2013-08-07 17:18:00,66.6,37.3,29.84,South,175,6.9,6.9,34,0.00,CLR,,0.00,WeatherDisplay:10.37,2013-08-07 23:18:00,
2013-08-07 17:23:00,67.1,36.2,29.84,SSW,193,4.6,4.6,32,0.00,CLR,,0.00,WeatherDisplay:10.37,2013-08-07 23:23:00,
2013-08-07 17:28:00,67.9,36.1,29.84,South,176,3.0,3.0,31,0.00,CLR,,0.00,WeatherDisplay:10.37,2013-08-07 23:28:00,
2013-08-07 17:33:00,68.8,39.3,29.81,West,269,10.4,10.4,34,0.00,CLR,,0.00,WeatherDisplay:10.37,2013-08-07 23:33:00,
2013-08-07 17:38:00,68.9,40.1,29.81,West,271,12.7,12.7,35,0.00,CLR,,0.00,WeatherDisplay:10.37,2013-08-07 23:38:00,
2013-08-07 17:43:00,69.3,38.9,29.81,SW,221,6.9,6.9,33,0.00,CLR,,0.00,WeatherDisplay:10.37,2013-08-07 23:43:00,
2013-08-07 17:48:00,69.6,40.0,29.80,SW,227,6.9,6.9,34,0.00,CLR,,0.00,WeatherDisplay:10.37,2013-08-07 23:48:00,
2013-08-07 17:53:00,68.3,40.3,29.80,WSW,247,10.0,10.0,36,0.00,CLR,,0.00,WeatherDisplay:10.37,2013-08-07 23:53:00,
2013-08-07 17:58:00,68.4,39.7,29.80,WSW,256,8.1,8.1,35,0.00,CLR,,0.00,WeatherDisplay:10.37,2013-08-07 23:58:00,
2013-08-07 18:03:00,68.1,37.9,29.80,WSW,240,6.9,6.9,33,0.00,CLR,,0.00,WeatherDisplay:10.37,2013-08-08 00:03:00,
2013-08-07 18:08:00,67.1,37.8,29.80,WSW,241,4.6,4.6,34,0.00,CLR,,0.00,WeatherDisplay:10.37,2013-08-08 00:08:00,
2013-08-07 18:13:00,66.6,38.1,29.80,WSW,249,6.9,6.9,35,0.00,CLR,,0.00,WeatherDisplay:10.37,2013-08-08 00:13:00,
2013-08-07 18:18:00,66.1,38.4,29.81,SW,227,8.1,8.1,36,0.00,CLR,,0.00,WeatherDisplay:10.37,2013-08-08 00:18:00,
2013-08-07 18:23:00,66.0,38.3,29.81,SW,217,10.0,10.0,36,0.00,CLR,,0.00,WeatherDisplay:10.37,2013-08-08 00:23:00,
2013-08-07 18:28:00,65.8,38.1,29.81,WSW,255,7.0,7.0,36,0.00,CLR,,0.00,WeatherDisplay:10.37,2013-08-08 00:28:00,
2013-08-07 18:33:00,65.8,37.4,29.81,SW,227,6.9,6.9,35,0.00,CLR,,0.00,WeatherDisplay:10.37,2013-08-08 00:33:00,
2013-08-07 18:38:00,66.0,38.3,29.81,WSW,258,3.5,3.5,36,0.00,CLR,,0.00,WeatherDisplay:10.37,2013-08-08 00:38:00,
2013-08-07 18:43:00,66.0,36.8,29.81,WSW,258,3.5,3.5,34,0.00,CLR,,0.00,WeatherDisplay:10.37,2013-08-08 00:43:00,
2013-08-07 18:48:00,66.1,39.1,29.81,WSW,258,2.3,2.3,37,0.00,CLR,,0.00,WeatherDisplay:10.37,2013-08-08 00:48:00,
2013-08-07 18:53:00,66.0,37.5,29.81,WSW,256,3.0,3.0,35,0.00,CLR,,0.00,WeatherDisplay:10.37,2013-08-08 00:53:00,
2013-08-07 18:58:00,66.0,39.0,29.81,WSW,256,1.2,1.2,37,0.00,CLR,,0.00,WeatherDisplay:10.37,2013-08-08 00:58:00,
2013-08-07 19:03:00,66.0,38.3,29.81,WSW,256,1.2,1.2,36,0.00,CLR,,0.00,WeatherDisplay:10.37,2013-08-08 01:03:00,
2013-08-07 19:08:00,66.0,37.5,29.81,WSW,256,0.0,0.0,35,0.00,CLR,,0.00,WeatherDisplay:10.37,2013-08-08 01:08:00,
2013-08-07 19:13:00,66.0,38.3,29.81,WSW,258,0.0,0.0,36,0.00,CLR,,0.00,WeatherDisplay:10.37,2013-08-08 01:13:00,
2013-08-07 19:18:00,65.8,37.4,29.76,WSW,258,1.0,1.0,35,0.00,CLR,,0.00,WeatherDisplay:10.37,2013-08-08 01:18:00,
2013-08-07 19:23:00,65.2,42.7,29.76,SE,124,6.0,6.0,44,0.00,CLR,,0.00,WeatherDisplay:10.37,2013-08-08 01:23:00,
2013-08-07 19:28:00,63.2,46.3,29.76,SE,128,7.0,7.0,54,0.00,CLR,,0.00,WeatherDisplay:10.37,2013-08-08 01:28:00,
2013-08-07 19:33:00,62.1,46.2,29.78,ESE,117,5.0,5.0,56,0.00,CLR,,0.00,WeatherDisplay:10.37,2013-08-08 01:33:00,
2013-08-07 19:38:00,61.6,46.2,29.78,ESE,114,8.1,8.1,57,0.00,CLR,,0.00,WeatherDisplay:10.37,2013-08-08 01:38:00,
2013-08-07 19:43:00,61.2,46.8,29.78,SE,128,4.6,4.6,59,0.00,CLR,,0.00,WeatherDisplay:10.37,2013-08-08 01:43:00,
2013-08-07 19:48:00,60.9,46.9,29.79,East,101,4.6,4.6,60,0.00,CLR,,0.00,WeatherDisplay:10.37,2013-08-08 01:48:00,
2013-08-07 19:53:00,60.5,46.5,29.79,East,101,3.5,3.5,60,0.00,CLR,,0.00,WeatherDisplay:10.37,2013-08-08 01:53:00,
2013-08-07 19:58:00,60.2,46.7,29.79,East,100,3.5,3.5,61,0.00,CLR,,0.00,WeatherDisplay:10.37,2013-08-08 01:58:00,
2013-08-07 20:03:00,59.8,46.3,29.80,SE,139,3.5,3.5,61,0.00,CLR,,0.00,WeatherDisplay:10.37,2013-08-08 02:03:00,
2013-08-07 20:08:00,59.5,46.5,29.80,NE,48,3.5,3.5,62,0.00,CLR,,0.00,WeatherDisplay:10.37,2013-08-08 02:08:00,
2013-08-07 20:13:00,58.9,46.3,29.80,North,5,3.5,3.5,63,0.00,CLR,,0.00,WeatherDisplay:10.37,2013-08-08 02:13:00,
2013-08-07 20:18:00,58.4,46.3,29.75,NNE,18,3.5,3.5,64,0.00,CLR,,0.00,WeatherDisplay:10.37,2013-08-08 02:18:00,
2013-08-07 20:23:00,58.0,46.3,29.75,NNW,340,5.0,5.0,65,0.00,CLR,,0.00,WeatherDisplay:10.37,2013-08-08 02:23:00,
2013-08-07 20:28:00,57.5,46.2,29.75,North,351,3.5,3.5,66,0.00,CLR,,0.00,WeatherDisplay:10.37,2013-08-08 02:28:00,
2013-08-07 20:33:00,57.0,46.1,29.75,NE,42,4.6,4.6,67,0.00,CLR,,0.00,WeatherDisplay:10.37,2013-08-08 02:33:00,
2013-08-07 20:38:00,56.3,46.3,29.75,NE,36,7.0,7.0,69,0.00,CLR,,0.00,WeatherDisplay:10.37,2013-08-08 02:38:00,
2013-08-07 20:43:00,55.9,47.0,29.75,NNE,25,8.1,8.1,72,0.00,CLR,,0.00,WeatherDisplay:10.37,2013-08-08 02:43:00,
2013-08-07 20:48:00,55.6,47.1,29.78,NNE,33,10.4,10.4,73,0.00,CLR,,0.00,WeatherDisplay:10.37,2013-08-08 02:48:00,
2013-08-07 20:53:00,55.3,47.2,29.78,NNE,15,7.0,7.0,74,0.00,CLR,,0.00,WeatherDisplay:10.37,2013-08-08 02:53:00,
2013-08-07 20:58:00,55.0,46.9,29.78,NE,35,8.1,8.1,74,0.00,CLR,,0.00,WeatherDisplay:10.37,2013-08-08 02:58:00,
2013-08-07 21:03:00,54.8,47.0,29.80,NE,48,3.5,3.5,75,0.00,CLR,,0.00,WeatherDisplay:10.37,2013-08-08 03:03:00,
2013-08-07 21:08:00,54.4,47.0,29.80,NNE,16,6.0,6.0,76,0.00,CLR,,0.00,WeatherDisplay:10.37,2013-08-08 03:08:00,
2013-08-07 21:13:00,53.9,46.9,29.80,NNE,14,5.8,5.8,77,0.00,CLR,,0.00,WeatherDisplay:10.37,2013-08-08 03:13:00,
2013-08-07 21:18:00,53.8,46.8,29.78,NNE,16,4.6,4.6,77,0.00,CLR,,0.00,WeatherDisplay:10.37,2013-08-08 03:18:00,
2013-08-07 21:23:00,53.8,46.8,29.78,NNE,16,1.2,1.2,77,0.00,CLR,,0.00,WeatherDisplay:10.37,2013-08-08 03:23:00,
2013-08-07 21:28:00,53.6,46.6,29.78,NNE,21,3.0,3.0,77,0.00,CLR,,0.00,WeatherDisplay:10.37,2013-08-08 03:28:00,
2013-08-07 21:33:00,53.5,46.8,29.79,NNE,21,3.5,3.5,78,0.00,CLR,,0.00,WeatherDisplay:10.37,2013-08-08 03:33:00,
2013-08-07 21:38:00,53.2,46.5,29.79,NNE,21,2.3,2.3,78,0.00,CLR,,0.00,WeatherDisplay:10.37,2013-08-08 03:38:00,
2013-08-07 21:43:00,52.9,45.9,29.79,NNE,21,0.0,0.0,77,0.00,CLR,,0.00,WeatherDisplay:10.37,2013-08-08 03:43:00,
2013-08-07 21:48:00,52.9,46.6,29.80,NW,323,2.3,2.3,79,0.00,CLR,,0.00,WeatherDisplay:10.37,2013-08-08 03:48:00,
2013-08-07 21:53:00,52.8,46.1,29.80,NW,323,0.0,0.0,78,0.00,CLR,,0.00,WeatherDisplay:10.37,2013-08-08 03:53:00,
2013-08-07 21:58:00,52.5,45.8,29.80,NW,323,0.0,0.0,78,0.00,CLR,,0.00,WeatherDisplay:10.37,2013-08-08 03:58:00,
2013-08-07 22:01:00,52.3,46.0,29.80,NW,323,0.0,0.0,79,0.00,CLR,,0.00,WeatherDisplay:10.37,2013-08-08 04:01:00,
2013-08-07 22:02:00,52.3,46.0,29.80,NW,323,0.0,0.0,79,0.00,CLR,,0.00,WeatherDisplay:10.37,2013-08-08 04:02:00,
2013-08-07 22:03:00,52.2,45.9,29.80,NW,323,1.2,0.0,79,0.00,CLR,,0.00,WeatherDisplay:10.37,2013-08-08 04:03:00,
2013-08-07 22:08:00,51.9,45.6,29.80,NW,323,0.0,0.0,79,0.00,CLR,,0.00,WeatherDisplay:10.37,2013-08-08 04:08:00,
2013-08-07 22:13:00,51.4,45.4,29.80,North,1,3.5,3.5,80,0.00,CLR,,0.00,WeatherDisplay:10.37,2013-08-08 04:13:00,
2013-08-07 22:18:00,51.0,45.0,29.80,North,1,0.0,0.0,80,0.00,CLR,,0.00,WeatherDisplay:10.37,2013-08-08 04:18:00,
2013-08-07 22:23:00,50.5,44.6,29.80,North,1,1.2,1.2,80,0.00,CLR,,0.00,WeatherDisplay:10.37,2013-08-08 04:23:00,
2013-08-07 22:28:00,50.1,44.2,29.80,North,1,1.2,1.2,80,0.00,CLR,,0.00,WeatherDisplay:10.37,2013-08-08 04:28:00,
2013-08-07 22:33:00,49.8,44.2,29.80,North,0,0.0,0.0,81,0.00,CLR,,0.00,WeatherDisplay:10.37,2013-08-08 04:33:00,
2013-08-07 22:38:00,49.6,44.0,29.80,North,0,0.0,0.0,81,0.00,CLR,,0.00,WeatherDisplay:10.37,2013-08-08 04:38:00,
2013-08-07 22:43:00,49.5,43.6,29.80,North,0,2.3,2.3,80,0.00,CLR,,0.00,WeatherDisplay:10.37,2013-08-08 04:43:00,
2013-08-07 22:48:00,49.1,42.9,29.82,North,0,0.0,0.0,79,0.00,CLR,,0.00,WeatherDisplay:10.37,2013-08-08 04:48:00,
2013-08-07 22:53:00,48.8,42.6,29.82,North,0,1.2,1.2,79,0.00,CLR,,0.00,WeatherDisplay:10.37,2013-08-08 04:53:00,
2013-08-07 22:58:00,48.8,42.2,29.82,North,0,1.0,1.0,78,0.00,CLR,,0.00,WeatherDisplay:10.37,2013-08-08 04:58:00,
2013-08-07 23:03:00,49.2,42.0,29.81,NW,320,3.5,3.5,76,0.00,CLR,,0.00,WeatherDisplay:10.37,2013-08-08 05:03:00,
2013-08-07 23:08:00,49.2,41.6,29.81,NW,320,0.0,0.0,75,0.00,CLR,,0.00,WeatherDisplay:10.37,2013-08-08 05:08:00,
2013-08-07 23:13:00,49.1,41.9,29.81,West,268,5.8,5.8,76,0.00,CLR,,0.00,WeatherDisplay:10.37,2013-08-08 05:13:00,
2013-08-07 23:18:00,49.4,41.8,29.83,West,271,3.5,3.5,75,0.00,CLR,,0.00,WeatherDisplay:10.37,2013-08-08 05:18:00,
2013-08-07 23:23:00,49.1,41.5,29.83,West,271,2.3,2.3,75,0.00,CLR,,0.00,WeatherDisplay:10.37,2013-08-08 05:23:00,
2013-08-07 23:28:00,48.8,41.2,29.83,West,271,2.3,2.3,75,0.00,CLR,,0.00,WeatherDisplay:10.37,2013-08-08 05:28:00,
2013-08-07 23:33:00,48.3,41.1,29.82,West,271,2.3,2.3,76,0.00,CLR,,0.00,WeatherDisplay:10.37,2013-08-08 05:33:00,
2013-08-07 23:38:00,48.0,40.8,29.82,West,271,1.2,1.2,76,0.00,CLR,,0.00,WeatherDisplay:10.37,2013-08-08 05:38:00,
2013-08-07 23:43:00,47.7,40.5,29.82,West,271,0.0,0.0,76,0.00,CLR,,0.00,WeatherDisplay:10.37,2013-08-08 05:43:00,
2013-08-07 23:48:00,47.3,40.5,29.83,West,271,2.3,2.3,77,0.00,CLR,,0.00,WeatherDisplay:10.37,2013-08-08 05:48:00,
2013-08-07 23:53:00,47.0,40.5,29.83,West,271,0.0,0.0,78,0.00,CLR,,0.00,WeatherDisplay:10.37,2013-08-08 05:53:00,
2013-08-07 23:58:00,46.7,40.2,29.83,West,271,0.0,0.0,78,0.00,CLR,,0.00,WeatherDisplay:10.37,2013-08-08 05:58:00,